sensor_id;sensor_type;location;lat;lon;timestamp;temperature;humidity
13488;DHT22;6816;48.506;9.050;2023-01-10T00:00:47;7.20;99.90
13488;DHT22;6816;48.506;9.050;2023-01-10T00:03:48;7.20;99.90
13488;DHT22;6816;48.506;9.050;2023-01-10T00:06:49;7.20;99.90
13488;DHT22;6816;48.506;9.050;2023-01-10T00:09:50;7.20;99.90
13488;DHT22;6816;48.506;9.050;2023-01-10T00:12:50;7.20;99.90
13488;DHT22;6816;48.506;9.050;2023-01-10T00:16:09;7.20;99.90
13488;DHT22;6816;48.506;9.050;2023-01-10T00:19:10;7.20;99.90
13488;DHT22;6816;48.506;9.050;2023-01-10T00:22:10;7.20;99.90
13488;DHT22;6816;48.506;9.050;2023-01-10T00:25:11;7.20;99.90
13488;DHT22;6816;48.506;9.050;2023-01-10T00:28:12;7.20;99.90
13488;DHT22;6816;48.506;9.050;2023-01-10T00:31:23;7.20;99.90
13488;DHT22;6816;48.506;9.050;2023-01-10T00:34:23;7.20;99.90
13488;DHT22;6816;48.506;9.050;2023-01-10T00:37:24;7.20;99.90
13488;DHT22;6816;48.506;9.050;2023-01-10T00:40:24;7.10;99.90
13488;DHT22;6816;48.506;9.050;2023-01-10T00:43:25;7.20;99.90
13488;DHT22;6816;48.506;9.050;2023-01-10T00:46:44;7.10;99.90
13488;DHT22;6816;48.506;9.050;2023-01-10T00:49:45;7.10;99.90
13488;DHT22;6816;48.506;9.050;2023-01-10T00:52:46;7.10;99.90
13488;DHT22;6816;48.506;9.050;2023-01-10T00:55:46;7.10;99.90
13488;DHT22;6816;48.506;9.050;2023-01-10T00:58:47;7.10;99.90
13488;DHT22;6816;48.506;9.050;2023-01-10T01:01:49;7.00;99.90
13488;DHT22;6816;48.506;9.050;2023-01-10T01:04:49;7.10;99.90
13488;DHT22;6816;48.506;9.050;2023-01-10T01:07:51;7.10;99.90
13488;DHT22;6816;48.506;9.050;2023-01-10T01:10:51;7.00;99.90
13488;DHT22;6816;48.506;9.050;2023-01-10T01:13:52;7.00;99.90
13488;DHT22;6816;48.506;9.050;2023-01-10T01:16:53;6.90;99.90
13488;DHT22;6816;48.506;9.050;2023-01-10T01:19:54;6.90;99.90
13488;DHT22;6816;48.506;9.050;2023-01-10T01:22:55;7.00;99.90
13488;DHT22;6816;48.506;9.050;2023-01-10T01:25:56;7.00;99.90
13488;DHT22;6816;48.506;9.050;2023-01-10T01:28:57;6.90;99.90
13488;DHT22;6816;48.506;9.050;2023-01-10T01:31:57;6.90;99.90
13488;DHT22;6816;48.506;9.050;2023-01-10T01:34:58;6.80;99.90
13488;DHT22;6816;48.506;9.050;2023-01-10T01:37:59;6.90;99.90
13488;DHT22;6816;48.506;9.050;2023-01-10T01:41:00;6.80;99.90
13488;DHT22;6816;48.506;9.050;2023-01-10T01:44:02;6.80;99.90
13488;DHT22;6816;48.506;9.050;2023-01-10T01:50:04;6.80;99.90
13488;DHT22;6816;48.506;9.050;2023-01-10T01:53:24;6.80;99.90
13488;DHT22;6816;48.506;9.050;2023-01-10T01:56:37;6.80;99.90
13488;DHT22;6816;48.506;9.050;2023-01-10T01:59:47;6.90;99.90
13488;DHT22;6816;48.506;9.050;2023-01-10T02:02:51;6.80;99.90
13488;DHT22;6816;48.506;9.050;2023-01-10T02:05:53;6.80;99.90
13488;DHT22;6816;48.506;9.050;2023-01-10T02:09:07;6.80;99.90
13488;DHT22;6816;48.506;9.050;2023-01-10T02:12:10;6.80;99.90
13488;DHT22;6816;48.506;9.050;2023-01-10T02:15:12;6.90;99.90
13488;DHT22;6816;48.506;9.050;2023-01-10T02:18:13;6.80;99.90
13488;DHT22;6816;48.506;9.050;2023-01-10T02:44:49;6.70;99.90
13488;DHT22;6816;48.506;9.050;2023-01-10T02:47:50;6.70;99.90
13488;DHT22;6816;48.506;9.050;2023-01-10T02:50:52;6.70;99.90
13488;DHT22;6816;48.506;9.050;2023-01-10T02:57:23;6.60;99.90
13488;DHT22;6816;48.506;9.050;2023-01-10T03:00:34;6.60;99.90
13488;DHT22;6816;48.506;9.050;2023-01-10T03:10:38;6.60;99.90
13488;DHT22;6816;48.506;9.050;2023-01-10T03:13:52;6.70;99.90
13488;DHT22;6816;48.506;9.050;2023-01-10T03:17:02;6.60;99.90
13488;DHT22;6816;48.506;9.050;2023-01-10T03:20:05;6.60;99.90
13488;DHT22;6816;48.506;9.050;2023-01-10T03:23:07;6.60;99.90
13488;DHT22;6816;48.506;9.050;2023-01-10T03:26:09;6.60;99.90
13488;DHT22;6816;48.506;9.050;2023-01-10T03:29:12;6.60;99.90
13488;DHT22;6816;48.506;9.050;2023-01-10T03:32:21;6.60;99.90
13488;DHT22;6816;48.506;9.050;2023-01-10T03:35:30;6.60;99.90
13488;DHT22;6816;48.506;9.050;2023-01-10T03:42:19;6.60;99.90
13488;DHT22;6816;48.506;9.050;2023-01-10T03:45:40;6.60;99.90
13488;DHT22;6816;48.506;9.050;2023-01-10T03:48:44;6.50;99.90
13488;DHT22;6816;48.506;9.050;2023-01-10T03:51:46;6.50;99.90
13488;DHT22;6816;48.506;9.050;2023-01-10T03:54:47;6.50;99.90
13488;DHT22;6816;48.506;9.050;2023-01-10T03:57:48;6.60;99.90
13488;DHT22;6816;48.506;9.050;2023-01-10T04:00:48;6.50;99.90
13488;DHT22;6816;48.506;9.050;2023-01-10T04:03:49;6.60;99.90
13488;DHT22;6816;48.506;9.050;2023-01-10T04:06:50;6.50;99.90
13488;DHT22;6816;48.506;9.050;2023-01-10T04:09:50;6.50;99.90
13488;DHT22;6816;48.506;9.050;2023-01-10T04:12:51;6.60;99.90
13488;DHT22;6816;48.506;9.050;2023-01-10T04:15:52;6.60;99.90
13488;DHT22;6816;48.506;9.050;2023-01-10T04:18:52;6.60;99.90
13488;DHT22;6816;48.506;9.050;2023-01-10T04:21:53;6.60;99.90
13488;DHT22;6816;48.506;9.050;2023-01-10T04:24:53;6.60;99.90
13488;DHT22;6816;48.506;9.050;2023-01-10T04:27:54;6.60;99.90
13488;DHT22;6816;48.506;9.050;2023-01-10T04:30:55;6.60;99.90
13488;DHT22;6816;48.506;9.050;2023-01-10T04:33:55;6.60;99.90
13488;DHT22;6816;48.506;9.050;2023-01-10T04:36:56;6.60;99.90
13488;DHT22;6816;48.506;9.050;2023-01-10T04:39:57;6.60;99.90
13488;DHT22;6816;48.506;9.050;2023-01-10T04:42:57;6.60;99.90
13488;DHT22;6816;48.506;9.050;2023-01-10T04:45:58;6.60;99.90
13488;DHT22;6816;48.506;9.050;2023-01-10T04:48:59;6.60;99.90
13488;DHT22;6816;48.506;9.050;2023-01-10T04:51:59;6.60;99.90
13488;DHT22;6816;48.506;9.050;2023-01-10T04:55:00;6.70;99.90
13488;DHT22;6816;48.506;9.050;2023-01-10T04:58:01;6.60;99.90
13488;DHT22;6816;48.506;9.050;2023-01-10T05:01:16;6.60;99.90
13488;DHT22;6816;48.506;9.050;2023-01-10T05:04:17;6.60;99.90
13488;DHT22;6816;48.506;9.050;2023-01-10T05:07:18;6.60;99.90
13488;DHT22;6816;48.506;9.050;2023-01-10T05:10:18;6.50;99.90
13488;DHT22;6816;48.506;9.050;2023-01-10T05:13:19;6.60;99.90
13488;DHT22;6816;48.506;9.050;2023-01-10T05:16:19;6.50;99.90
13488;DHT22;6816;48.506;9.050;2023-01-10T05:19:20;6.40;99.90
13488;DHT22;6816;48.506;9.050;2023-01-10T05:22:21;6.40;99.90
13488;DHT22;6816;48.506;9.050;2023-01-10T05:25:21;6.50;99.90
13488;DHT22;6816;48.506;9.050;2023-01-10T05:28:22;6.40;99.90
13488;DHT22;6816;48.506;9.050;2023-01-10T05:31:23;6.50;99.90
13488;DHT22;6816;48.506;9.050;2023-01-10T05:34:24;6.40;99.90
13488;DHT22;6816;48.506;9.050;2023-01-10T05:37:24;6.40;99.90
13488;DHT22;6816;48.506;9.050;2023-01-10T05:40:25;6.30;99.90
13488;DHT22;6816;48.506;9.050;2023-01-10T05:43:26;6.30;99.90
13488;DHT22;6816;48.506;9.050;2023-01-10T05:46:27;6.30;99.90
13488;DHT22;6816;48.506;9.050;2023-01-10T05:49:28;6.30;99.90
13488;DHT22;6816;48.506;9.050;2023-01-10T05:52:28;6.30;99.90
13488;DHT22;6816;48.506;9.050;2023-01-10T05:55:29;6.40;99.90
13488;DHT22;6816;48.506;9.050;2023-01-10T05:58:30;6.30;99.90
13488;DHT22;6816;48.506;9.050;2023-01-10T06:01:30;6.30;99.90
13488;DHT22;6816;48.506;9.050;2023-01-10T06:04:31;6.30;99.90
13488;DHT22;6816;48.506;9.050;2023-01-10T06:07:32;6.30;99.90
13488;DHT22;6816;48.506;9.050;2023-01-10T06:10:32;6.40;99.90
13488;DHT22;6816;48.506;9.050;2023-01-10T06:13:33;6.50;99.90
13488;DHT22;6816;48.506;9.050;2023-01-10T06:16:34;6.40;99.90
13488;DHT22;6816;48.506;9.050;2023-01-10T06:19:34;6.40;99.90
13488;DHT22;6816;48.506;9.050;2023-01-10T06:22:35;6.40;99.90
13488;DHT22;6816;48.506;9.050;2023-01-10T06:25:36;6.40;99.90
13488;DHT22;6816;48.506;9.050;2023-01-10T06:28:39;6.40;99.90
13488;DHT22;6816;48.506;9.050;2023-01-10T06:31:40;6.40;99.90
13488;DHT22;6816;48.506;9.050;2023-01-10T06:34:41;6.40;99.90
13488;DHT22;6816;48.506;9.050;2023-01-10T06:37:41;6.40;99.90
13488;DHT22;6816;48.506;9.050;2023-01-10T06:40:42;6.40;99.90
13488;DHT22;6816;48.506;9.050;2023-01-10T06:43:44;6.40;99.90
13488;DHT22;6816;48.506;9.050;2023-01-10T06:46:45;6.40;99.90
13488;DHT22;6816;48.506;9.050;2023-01-10T06:49:46;6.40;99.90
13488;DHT22;6816;48.506;9.050;2023-01-10T06:52:57;6.40;99.90
13488;DHT22;6816;48.506;9.050;2023-01-10T06:55:58;6.40;99.90
13488;DHT22;6816;48.506;9.050;2023-01-10T06:58:59;6.40;99.90
13488;DHT22;6816;48.506;9.050;2023-01-10T07:01:59;6.40;99.90
13488;DHT22;6816;48.506;9.050;2023-01-10T07:05:00;6.40;99.90
13488;DHT22;6816;48.506;9.050;2023-01-10T07:08:01;6.40;99.90
13488;DHT22;6816;48.506;9.050;2023-01-10T07:11:02;6.40;99.90
13488;DHT22;6816;48.506;9.050;2023-01-10T07:14:02;6.40;99.90
13488;DHT22;6816;48.506;9.050;2023-01-10T07:17:03;6.40;99.90
13488;DHT22;6816;48.506;9.050;2023-01-10T07:20:04;6.40;99.90
13488;DHT22;6816;48.506;9.050;2023-01-10T07:23:05;6.40;99.90
13488;DHT22;6816;48.506;9.050;2023-01-10T07:26:10;6.50;99.90
13488;DHT22;6816;48.506;9.050;2023-01-10T07:29:11;6.40;99.90
13488;DHT22;6816;48.506;9.050;2023-01-10T07:32:12;6.40;99.90
13488;DHT22;6816;48.506;9.050;2023-01-10T07:35:12;6.50;99.90
13488;DHT22;6816;48.506;9.050;2023-01-10T07:38:13;6.50;99.90
13488;DHT22;6816;48.506;9.050;2023-01-10T07:41:14;6.50;99.90
13488;DHT22;6816;48.506;9.050;2023-01-10T07:44:15;6.50;99.90
13488;DHT22;6816;48.506;9.050;2023-01-10T07:47:15;6.50;99.90
13488;DHT22;6816;48.506;9.050;2023-01-10T07:50:16;6.60;99.90
13488;DHT22;6816;48.506;9.050;2023-01-10T07:53:17;6.70;99.90
13488;DHT22;6816;48.506;9.050;2023-01-10T07:56:17;6.60;99.90
13488;DHT22;6816;48.506;9.050;2023-01-10T07:59:18;6.60;99.90
13488;DHT22;6816;48.506;9.050;2023-01-10T08:02:18;6.60;99.90
13488;DHT22;6816;48.506;9.050;2023-01-10T08:05:19;6.70;99.90
13488;DHT22;6816;48.506;9.050;2023-01-10T08:08:20;6.70;99.90
13488;DHT22;6816;48.506;9.050;2023-01-10T08:11:20;6.70;99.90
13488;DHT22;6816;48.506;9.050;2023-01-10T08:14:21;6.70;99.90
13488;DHT22;6816;48.506;9.050;2023-01-10T08:17:22;6.70;99.90
13488;DHT22;6816;48.506;9.050;2023-01-10T08:20:22;6.70;99.90
13488;DHT22;6816;48.506;9.050;2023-01-10T08:23:23;6.80;99.90
13488;DHT22;6816;48.506;9.050;2023-01-10T08:26:23;6.80;99.90
13488;DHT22;6816;48.506;9.050;2023-01-10T08:29:24;7.00;99.90
13488;DHT22;6816;48.506;9.050;2023-01-10T08:32:25;6.90;99.90
13488;DHT22;6816;48.506;9.050;2023-01-10T08:35:25;6.90;99.90
13488;DHT22;6816;48.506;9.050;2023-01-10T08:38:26;6.90;99.90
13488;DHT22;6816;48.506;9.050;2023-01-10T08:41:27;7.00;99.90
13488;DHT22;6816;48.506;9.050;2023-01-10T08:44:28;7.00;99.90
13488;DHT22;6816;48.506;9.050;2023-01-10T08:47:28;7.00;99.90
13488;DHT22;6816;48.506;9.050;2023-01-10T08:50:29;7.00;99.90
13488;DHT22;6816;48.506;9.050;2023-01-10T08:53:30;7.10;99.90
13488;DHT22;6816;48.506;9.050;2023-01-10T08:56:31;7.10;99.90
13488;DHT22;6816;48.506;9.050;2023-01-10T08:59:31;7.10;99.90
13488;DHT22;6816;48.506;9.050;2023-01-10T09:02:32;7.20;99.90
13488;DHT22;6816;48.506;9.050;2023-01-10T09:05:33;7.40;99.90
13488;DHT22;6816;48.506;9.050;2023-01-10T09:08:37;7.40;99.90
13488;DHT22;6816;48.506;9.050;2023-01-10T09:11:37;7.30;99.90
13488;DHT22;6816;48.506;9.050;2023-01-10T09:14:38;7.40;99.90
13488;DHT22;6816;48.506;9.050;2023-01-10T09:17:39;7.50;99.90
13488;DHT22;6816;48.506;9.050;2023-01-10T09:20:40;7.50;99.90
13488;DHT22;6816;48.506;9.050;2023-01-10T09:23:42;7.50;99.90
13488;DHT22;6816;48.506;9.050;2023-01-10T09:26:43;7.60;99.90
13488;DHT22;6816;48.506;9.050;2023-01-10T09:29:44;7.70;99.90
13488;DHT22;6816;48.506;9.050;2023-01-10T09:32:49;7.90;99.90
13488;DHT22;6816;48.506;9.050;2023-01-10T09:35:50;7.80;99.90
13488;DHT22;6816;48.506;9.050;2023-01-10T09:38:51;7.80;99.90
13488;DHT22;6816;48.506;9.050;2023-01-10T09:48:02;7.90;99.90
13488;DHT22;6816;48.506;9.050;2023-01-10T09:51:30;8.00;99.90
13488;DHT22;6816;48.506;9.050;2023-01-10T09:54:35;8.00;99.90
13488;DHT22;6816;48.506;9.050;2023-01-10T09:57:37;8.10;99.90
13488;DHT22;6816;48.506;9.050;2023-01-10T10:00:39;8.20;99.90
13488;DHT22;6816;48.506;9.050;2023-01-10T10:07:10;8.10;99.90
13488;DHT22;6816;48.506;9.050;2023-01-10T10:10:20;8.10;99.90
13488;DHT22;6816;48.506;9.050;2023-01-10T10:14:14;8.10;99.90
13488;DHT22;6816;48.506;9.050;2023-01-10T10:17:22;8.20;99.90
13488;DHT22;6816;48.506;9.050;2023-01-10T10:20:30;8.20;99.90
13488;DHT22;6816;48.506;9.050;2023-01-10T10:27:39;8.30;99.90
13488;DHT22;6816;48.506;9.050;2023-01-10T10:30:48;8.40;99.90
13488;DHT22;6816;48.506;9.050;2023-01-10T10:34:29;8.40;99.90
13488;DHT22;6816;48.506;9.050;2023-01-10T10:37:48;8.40;99.90
13488;DHT22;6816;48.506;9.050;2023-01-10T10:40:51;8.50;99.90
13488;DHT22;6816;48.506;9.050;2023-01-10T10:43:53;8.50;99.90
13488;DHT22;6816;48.506;9.050;2023-01-10T10:46:57;8.60;99.90
13488;DHT22;6816;48.506;9.050;2023-01-10T10:50:17;8.70;99.90
13488;DHT22;6816;48.506;9.050;2023-01-10T10:53:20;8.70;99.90
13488;DHT22;6816;48.506;9.050;2023-01-10T10:56:23;8.80;99.90
13488;DHT22;6816;48.506;9.050;2023-01-10T10:59:24;8.80;99.90
13488;DHT22;6816;48.506;9.050;2023-01-10T11:02:29;8.90;99.90
13488;DHT22;6816;48.506;9.050;2023-01-10T11:05:41;8.90;99.90
13488;DHT22;6816;48.506;9.050;2023-01-10T11:08:45;9.00;99.90
13488;DHT22;6816;48.506;9.050;2023-01-10T11:11:48;9.00;99.90
13488;DHT22;6816;48.506;9.050;2023-01-10T11:14:51;9.10;99.90
13488;DHT22;6816;48.506;9.050;2023-01-10T11:18:19;9.20;99.90
13488;DHT22;6816;48.506;9.050;2023-01-10T11:21:21;9.20;99.90
13488;DHT22;6816;48.506;9.050;2023-01-10T11:24:55;9.20;99.90
13488;DHT22;6816;48.506;9.050;2023-01-10T11:27:58;9.20;99.90
13488;DHT22;6816;48.506;9.050;2023-01-10T11:31:03;9.30;99.90
13488;DHT22;6816;48.506;9.050;2023-01-10T11:34:07;9.30;99.90
13488;DHT22;6816;48.506;9.050;2023-01-10T11:43:35;9.40;99.90
13488;DHT22;6816;48.506;9.050;2023-01-10T11:46:36;9.50;99.90
13488;DHT22;6816;48.506;9.050;2023-01-10T11:49:39;9.50;99.90
13488;DHT22;6816;48.506;9.050;2023-01-10T11:52:43;9.50;99.90
13488;DHT22;6816;48.506;9.050;2023-01-10T11:55:46;9.50;99.90
13488;DHT22;6816;48.506;9.050;2023-01-10T11:58:47;9.60;99.90
13488;DHT22;6816;48.506;9.050;2023-01-10T12:01:56;9.60;99.90
13488;DHT22;6816;48.506;9.050;2023-01-10T12:04:59;9.60;99.90
13488;DHT22;6816;48.506;9.050;2023-01-10T12:08:03;9.70;99.90
13488;DHT22;6816;48.506;9.050;2023-01-10T12:14:19;9.80;99.90
13488;DHT22;6816;48.506;9.050;2023-01-10T12:17:36;10.00;99.90
13488;DHT22;6816;48.506;9.050;2023-01-10T12:20:48;9.90;99.90
13488;DHT22;6816;48.506;9.050;2023-01-10T12:23:52;10.00;99.90
13488;DHT22;6816;48.506;9.050;2023-01-10T12:26:54;10.00;99.90
13488;DHT22;6816;48.506;9.050;2023-01-10T12:30:06;10.10;99.90
13488;DHT22;6816;48.506;9.050;2023-01-10T12:33:14;10.20;99.90
13488;DHT22;6816;48.506;9.050;2023-01-10T12:39:31;10.30;99.90
13488;DHT22;6816;48.506;9.050;2023-01-10T12:42:52;10.30;99.90
13488;DHT22;6816;48.506;9.050;2023-01-10T12:46:22;10.20;99.90
13488;DHT22;6816;48.506;9.050;2023-01-10T12:49:30;10.20;99.90
13488;DHT22;6816;48.506;9.050;2023-01-10T12:52:58;10.10;99.90
13488;DHT22;6816;48.506;9.050;2023-01-10T12:56:00;10.10;99.90
13488;DHT22;6816;48.506;9.050;2023-01-10T12:59:10;10.00;99.90
13488;DHT22;6816;48.506;9.050;2023-01-10T13:02:18;10.00;99.90
13488;DHT22;6816;48.506;9.050;2023-01-10T13:05:22;10.00;99.90
13488;DHT22;6816;48.506;9.050;2023-01-10T13:08:27;10.00;99.90
13488;DHT22;6816;48.506;9.050;2023-01-10T13:11:31;9.90;99.90
13488;DHT22;6816;48.506;9.050;2023-01-10T13:18:25;9.80;99.90
13488;DHT22;6816;48.506;9.050;2023-01-10T13:21:27;9.80;99.90
13488;DHT22;6816;48.506;9.050;2023-01-10T13:24:28;9.80;99.90
13488;DHT22;6816;48.506;9.050;2023-01-10T13:27:32;9.80;99.90
13488;DHT22;6816;48.506;9.050;2023-01-10T13:30:35;9.80;99.90
13488;DHT22;6816;48.506;9.050;2023-01-10T13:33:51;9.80;99.90
13488;DHT22;6816;48.506;9.050;2023-01-10T13:36:59;9.80;99.90
13488;DHT22;6816;48.506;9.050;2023-01-10T13:40:01;9.80;99.90
13488;DHT22;6816;48.506;9.050;2023-01-10T13:43:31;9.90;99.90
13488;DHT22;6816;48.506;9.050;2023-01-10T13:46:47;9.90;99.90
13488;DHT22;6816;48.506;9.050;2023-01-10T13:49:49;9.90;99.90
13488;DHT22;6816;48.506;9.050;2023-01-10T13:56:03;9.80;99.90
13488;DHT22;6816;48.506;9.050;2023-01-10T14:02:52;9.80;99.90
13488;DHT22;6816;48.506;9.050;2023-01-10T14:05:52;9.70;99.90
13488;DHT22;6816;48.506;9.050;2023-01-10T14:08:55;9.60;99.90
13488;DHT22;6816;48.506;9.050;2023-01-10T14:12:01;9.60;99.90
13488;DHT22;6816;48.506;9.050;2023-01-10T14:18:34;9.50;99.90
13488;DHT22;6816;48.506;9.050;2023-01-10T14:21:41;9.40;99.90
13488;DHT22;6816;48.506;9.050;2023-01-10T14:24:44;9.40;99.90
13488;DHT22;6816;48.506;9.050;2023-01-10T14:27:50;9.30;99.90
13488;DHT22;6816;48.506;9.050;2023-01-10T14:31:12;9.30;99.90
13488;DHT22;6816;48.506;9.050;2023-01-10T14:34:22;9.20;99.90
13488;DHT22;6816;48.506;9.050;2023-01-10T14:37:28;9.10;99.90
13488;DHT22;6816;48.506;9.050;2023-01-10T14:43:47;9.00;99.90
13488;DHT22;6816;48.506;9.050;2023-01-10T14:46:55;9.00;99.90
13488;DHT22;6816;48.506;9.050;2023-01-10T14:49:56;8.90;99.90
13488;DHT22;6816;48.506;9.050;2023-01-10T14:53:03;8.80;99.90
13488;DHT22;6816;48.506;9.050;2023-01-10T14:56:26;8.80;99.90
13488;DHT22;6816;48.506;9.050;2023-01-10T14:59:32;8.80;99.90
13488;DHT22;6816;48.506;9.050;2023-01-10T15:02:33;8.70;99.90
13488;DHT22;6816;48.506;9.050;2023-01-10T15:05:44;8.60;99.90
13488;DHT22;6816;48.506;9.050;2023-01-10T15:08:57;8.50;99.90
13488;DHT22;6816;48.506;9.050;2023-01-10T15:12:00;8.50;99.90
13488;DHT22;6816;48.506;9.050;2023-01-10T15:15:11;8.40;99.90
13488;DHT22;6816;48.506;9.050;2023-01-10T15:21:41;8.30;99.90
13488;DHT22;6816;48.506;9.050;2023-01-10T15:24:42;8.30;99.90
13488;DHT22;6816;48.506;9.050;2023-01-10T15:27:50;8.20;99.90
13488;DHT22;6816;48.506;9.050;2023-01-10T15:30:52;8.20;99.90
13488;DHT22;6816;48.506;9.050;2023-01-10T15:33:54;8.20;99.90
13488;DHT22;6816;48.506;9.050;2023-01-10T15:36:59;8.10;99.90
13488;DHT22;6816;48.506;9.050;2023-01-10T15:40:04;8.10;99.90
13488;DHT22;6816;48.506;9.050;2023-01-10T15:46:20;8.00;99.90
13488;DHT22;6816;48.506;9.050;2023-01-10T15:49:23;7.90;99.90
13488;DHT22;6816;48.506;9.050;2023-01-10T15:52:24;7.90;99.90
13488;DHT22;6816;48.506;9.050;2023-01-10T15:55:51;7.80;99.90
13488;DHT22;6816;48.506;9.050;2023-01-10T15:58:53;7.80;99.90
13488;DHT22;6816;48.506;9.050;2023-01-10T16:02:24;7.70;99.90
13488;DHT22;6816;48.506;9.050;2023-01-10T16:05:25;7.70;99.90
13488;DHT22;6816;48.506;9.050;2023-01-10T16:08:29;7.60;99.90
13488;DHT22;6816;48.506;9.050;2023-01-10T16:11:39;7.50;99.90
13488;DHT22;6816;48.506;9.050;2023-01-10T16:14:59;7.50;99.90
13488;DHT22;6816;48.506;9.050;2023-01-10T16:18:00;7.50;99.90
13488;DHT22;6816;48.506;9.050;2023-01-10T16:21:02;7.30;99.90
13488;DHT22;6816;48.506;9.050;2023-01-10T16:24:05;7.20;99.90
13488;DHT22;6816;48.506;9.050;2023-01-10T16:27:09;7.20;99.90
13488;DHT22;6816;48.506;9.050;2023-01-10T16:33:25;7.10;99.90
13488;DHT22;6816;48.506;9.050;2023-01-10T16:36:27;7.00;99.90
13488;DHT22;6816;48.506;9.050;2023-01-10T16:39:27;6.90;99.90
13488;DHT22;6816;48.506;9.050;2023-01-10T16:42:28;6.90;99.90
13488;DHT22;6816;48.506;9.050;2023-01-10T16:45:57;6.80;99.90
13488;DHT22;6816;48.506;9.050;2023-01-10T16:49:02;6.70;99.90
13488;DHT22;6816;48.506;9.050;2023-01-10T16:52:05;6.60;99.90
13488;DHT22;6816;48.506;9.050;2023-01-10T16:55:14;6.60;99.90
13488;DHT22;6816;48.506;9.050;2023-01-10T16:58:16;6.50;99.90
13488;DHT22;6816;48.506;9.050;2023-01-10T17:01:20;6.60;99.90
13488;DHT22;6816;48.506;9.050;2023-01-10T17:04:25;6.40;99.90
13488;DHT22;6816;48.506;9.050;2023-01-10T17:07:35;6.40;99.90
13488;DHT22;6816;48.506;9.050;2023-01-10T17:10:35;6.40;99.90
13488;DHT22;6816;48.506;9.050;2023-01-10T17:13:40;6.30;99.90
13488;DHT22;6816;48.506;9.050;2023-01-10T17:16:41;6.30;99.90
13488;DHT22;6816;48.506;9.050;2023-01-10T17:19:44;6.30;99.90
13488;DHT22;6816;48.506;9.050;2023-01-10T17:22:46;6.30;99.90
13488;DHT22;6816;48.506;9.050;2023-01-10T17:25:47;6.20;99.90
13488;DHT22;6816;48.506;9.050;2023-01-10T17:28:52;6.30;99.90
13488;DHT22;6816;48.506;9.050;2023-01-10T17:31:52;6.20;99.90
13488;DHT22;6816;48.506;9.050;2023-01-10T17:34:53;6.10;99.90
13488;DHT22;6816;48.506;9.050;2023-01-10T17:37:53;6.10;99.90
13488;DHT22;6816;48.506;9.050;2023-01-10T17:41:06;6.10;99.90
13488;DHT22;6816;48.506;9.050;2023-01-10T17:44:06;6.10;99.90
13488;DHT22;6816;48.506;9.050;2023-01-10T17:47:07;6.00;99.90
13488;DHT22;6816;48.506;9.050;2023-01-10T17:50:09;6.00;99.90
13488;DHT22;6816;48.506;9.050;2023-01-10T17:53:10;6.00;99.90
13488;DHT22;6816;48.506;9.050;2023-01-10T17:56:11;5.90;99.90
13488;DHT22;6816;48.506;9.050;2023-01-10T17:59:11;6.20;99.90
13488;DHT22;6816;48.506;9.050;2023-01-10T18:02:15;5.90;99.90
13488;DHT22;6816;48.506;9.050;2023-01-10T18:05:16;5.90;99.90
13488;DHT22;6816;48.506;9.050;2023-01-10T18:08:18;5.90;99.90
13488;DHT22;6816;48.506;9.050;2023-01-10T18:11:19;5.90;99.90
13488;DHT22;6816;48.506;9.050;2023-01-10T18:14:19;5.80;99.90
13488;DHT22;6816;48.506;9.050;2023-01-10T18:17:35;5.80;99.90
13488;DHT22;6816;48.506;9.050;2023-01-10T18:20:42;5.70;99.90
13488;DHT22;6816;48.506;9.050;2023-01-10T18:23:43;5.70;99.90
13488;DHT22;6816;48.506;9.050;2023-01-10T18:26:45;5.70;99.90
13488;DHT22;6816;48.506;9.050;2023-01-10T18:29:47;5.70;99.90
13488;DHT22;6816;48.506;9.050;2023-01-10T18:32:49;5.50;99.90
13488;DHT22;6816;48.506;9.050;2023-01-10T18:35:50;5.70;99.90
13488;DHT22;6816;48.506;9.050;2023-01-10T18:38:51;5.70;99.90
13488;DHT22;6816;48.506;9.050;2023-01-10T18:41:52;5.70;99.90
13488;DHT22;6816;48.506;9.050;2023-01-10T18:44:52;5.70;99.90
13488;DHT22;6816;48.506;9.050;2023-01-10T18:47:53;5.90;99.90
13488;DHT22;6816;48.506;9.050;2023-01-10T18:50:58;5.80;99.90
13488;DHT22;6816;48.506;9.050;2023-01-10T18:53:59;5.90;99.90
13488;DHT22;6816;48.506;9.050;2023-01-10T18:56:59;5.90;99.90
13488;DHT22;6816;48.506;9.050;2023-01-10T19:00:00;5.90;99.90
13488;DHT22;6816;48.506;9.050;2023-01-10T19:03:00;5.90;99.90
13488;DHT22;6816;48.506;9.050;2023-01-10T19:06:05;5.90;99.90
13488;DHT22;6816;48.506;9.050;2023-01-10T19:09:06;5.90;99.90
13488;DHT22;6816;48.506;9.050;2023-01-10T19:12:07;5.90;99.90
13488;DHT22;6816;48.506;9.050;2023-01-10T19:15:08;6.00;99.90
13488;DHT22;6816;48.506;9.050;2023-01-10T19:18:08;6.00;99.90
13488;DHT22;6816;48.506;9.050;2023-01-10T19:21:09;6.10;99.90
13488;DHT22;6816;48.506;9.050;2023-01-10T19:24:27;6.10;99.90
13488;DHT22;6816;48.506;9.050;2023-01-10T19:27:29;6.10;99.90
13488;DHT22;6816;48.506;9.050;2023-01-10T19:30:29;6.20;99.90
13488;DHT22;6816;48.506;9.050;2023-01-10T19:33:31;6.20;99.90
13488;DHT22;6816;48.506;9.050;2023-01-10T19:36:33;6.30;99.90
13488;DHT22;6816;48.506;9.050;2023-01-10T19:39:34;6.30;99.90
13488;DHT22;6816;48.506;9.050;2023-01-10T19:42:36;6.40;99.90
13488;DHT22;6816;48.506;9.050;2023-01-10T19:45:40;6.40;99.90
13488;DHT22;6816;48.506;9.050;2023-01-10T19:48:40;6.40;99.90
13488;DHT22;6816;48.506;9.050;2023-01-10T19:51:43;6.40;99.90
13488;DHT22;6816;48.506;9.050;2023-01-10T19:54:45;6.60;99.90
13488;DHT22;6816;48.506;9.050;2023-01-10T19:57:46;6.60;99.90
13488;DHT22;6816;48.506;9.050;2023-01-10T20:00:47;6.50;99.90
13488;DHT22;6816;48.506;9.050;2023-01-10T20:03:47;6.70;99.90
13488;DHT22;6816;48.506;9.050;2023-01-10T20:06:48;6.70;99.90
13488;DHT22;6816;48.506;9.050;2023-01-10T20:09:49;6.70;99.90
13488;DHT22;6816;48.506;9.050;2023-01-10T20:12:49;6.60;99.90
13488;DHT22;6816;48.506;9.050;2023-01-10T20:15:50;6.70;99.90
13488;DHT22;6816;48.506;9.050;2023-01-10T20:18:51;6.60;99.90
13488;DHT22;6816;48.506;9.050;2023-01-10T20:21:52;6.70;99.90
13488;DHT22;6816;48.506;9.050;2023-01-10T20:24:52;6.70;99.90
13488;DHT22;6816;48.506;9.050;2023-01-10T20:27:53;6.70;99.90
13488;DHT22;6816;48.506;9.050;2023-01-10T20:30:54;6.70;99.90
13488;DHT22;6816;48.506;9.050;2023-01-10T20:33:54;6.70;99.90
13488;DHT22;6816;48.506;9.050;2023-01-10T20:36:55;6.70;99.90
13488;DHT22;6816;48.506;9.050;2023-01-10T20:39:56;6.70;99.90
13488;DHT22;6816;48.506;9.050;2023-01-10T20:42:57;6.80;99.90
13488;DHT22;6816;48.506;9.050;2023-01-10T20:46:10;6.70;99.90
13488;DHT22;6816;48.506;9.050;2023-01-10T20:49:11;6.80;99.90
13488;DHT22;6816;48.506;9.050;2023-01-10T20:52:12;6.80;99.90
13488;DHT22;6816;48.506;9.050;2023-01-10T20:55:13;6.80;99.90
13488;DHT22;6816;48.506;9.050;2023-01-10T20:58:15;6.90;99.90
13488;DHT22;6816;48.506;9.050;2023-01-10T21:01:16;6.80;99.90
13488;DHT22;6816;48.506;9.050;2023-01-10T21:04:17;6.80;99.90
13488;DHT22;6816;48.506;9.050;2023-01-10T21:07:17;6.90;99.90
13488;DHT22;6816;48.506;9.050;2023-01-10T21:10:18;6.90;99.90
13488;DHT22;6816;48.506;9.050;2023-01-10T21:13:19;6.90;99.90
13488;DHT22;6816;48.506;9.050;2023-01-10T21:16:19;7.00;99.90
13488;DHT22;6816;48.506;9.050;2023-01-10T21:19:21;7.00;99.90
13488;DHT22;6816;48.506;9.050;2023-01-10T21:22:21;7.00;99.90
13488;DHT22;6816;48.506;9.050;2023-01-10T21:25:22;7.00;99.90
13488;DHT22;6816;48.506;9.050;2023-01-10T21:28:23;7.10;99.90
13488;DHT22;6816;48.506;9.050;2023-01-10T21:31:24;7.10;99.90
13488;DHT22;6816;48.506;9.050;2023-01-10T21:34:25;7.10;99.90